createdAt,value
2022-09-09T00:01:12.876Z,71.35
2022-09-09T00:04:05.209Z,71.26
2022-09-09T00:06:36.508Z,71.48
2022-09-09T00:09:17.369Z,71.84
2022-09-09T00:11:48.809Z,72.90
2022-09-09T00:14:25.657Z,72.16
2022-09-09T00:16:57.028Z,73.02
2022-09-09T00:19:31.688Z,74.93
2022-09-09T00:22:08.889Z,74.20
2022-09-09T00:24:43.276Z,73.49
2022-09-09T00:27:39.532Z,73.30
2022-09-09T00:30:23.472Z,73.48
2022-09-09T00:32:55.333Z,72.75
2022-09-09T00:35:26.822Z,73.56
2022-09-09T00:38:12.133Z,73.46
2022-09-09T00:40:50.756Z,75.02
2022-09-09T00:43:26.868Z,75.75
2022-09-09T00:46:19.504Z,73.34
2022-09-09T00:49:19.284Z,75.06
2022-09-09T00:52:11.328Z,75.05
2022-09-09T00:54:52.231Z,73.37
2022-09-09T00:57:32.199Z,73.83
2022-09-09T01:00:23.655Z,74.30
2022-09-09T01:03:03.421Z,74.17
2022-09-09T01:05:33.822Z,73.96
2022-09-09T01:08:03.593Z,71.64
2022-09-09T01:10:42.808Z,79.84
2022-09-09T01:13:16.479Z,76.79
2022-09-09T01:15:45.574Z,75.84
2022-09-09T01:18:15.437Z,73.46
2022-09-09T01:21:07.416Z,73.07
2022-09-09T01:23:39.478Z,76.68
2022-09-09T01:26:23.625Z,78.42
2022-09-09T01:28:55.953Z,77.49
2022-09-09T01:31:29.013Z,75.67
2022-09-09T01:33:56.742Z,76.07
2022-09-09T01:36:38.550Z,74.19
2022-09-09T01:39:06.483Z,73.11
2022-09-09T01:41:34.021Z,74.11
2022-09-09T01:44:02.735Z,74.50
2022-09-09T01:46:30.720Z,75.42
2022-09-09T01:49:00.485Z,75.42
2022-09-09T01:51:28.177Z,75.43
2022-09-09T01:53:56.524Z,74.96
2022-09-09T01:56:41.940Z,75.46
2022-09-09T01:59:19.633Z,76.15
2022-09-09T02:02:16.887Z,74.76
2022-09-09T02:04:48.974Z,74.84
2022-09-09T02:07:37.748Z,76.83
2022-09-09T02:10:15.898Z,74.79
2022-09-09T02:12:47.436Z,74.63
2022-09-09T02:15:54.187Z,75.01
2022-09-09T02:18:29.210Z,75.65
2022-09-09T02:20:58.720Z,76.14
2022-09-09T02:23:26.614Z,74.68
2022-09-09T02:25:56.678Z,76.13
2022-09-09T02:28:26.452Z,74.42
2022-09-09T02:30:56.146Z,76.49
2022-09-09T02:33:26.452Z,74.94
2022-09-09T02:35:54.233Z,75.26
2022-09-09T02:38:23.187Z,77.31
2022-09-09T02:40:52.865Z,77.09
2022-09-09T02:43:20.621Z,76.38
2022-09-09T02:46:17.804Z,77.41
2022-09-09T02:49:01.010Z,76.03
2022-09-09T02:51:44.403Z,74.57
2022-09-09T02:54:19.903Z,75.76
2022-09-09T02:56:52.241Z,75.49
2022-09-09T02:59:20.271Z,76.19
2022-09-09T03:01:48.045Z,76.60
2022-09-09T03:04:15.680Z,76.93
2022-09-09T03:06:43.066Z,77.27
2022-09-09T03:09:11.897Z,76.08
2022-09-09T03:11:39.589Z,75.09
2022-09-09T03:14:07.481Z,74.29
2022-09-09T03:16:36.105Z,74.84
2022-09-09T03:19:04.039Z,75.14
2022-09-09T03:21:31.822Z,76.67
2022-09-09T03:24:00.353Z,78.49
2022-09-09T03:26:28.265Z,77.67
2022-09-09T03:28:56.293Z,79.09
2022-09-09T03:31:24.154Z,80.32
2022-09-09T03:33:51.933Z,78.65
2022-09-09T03:36:19.661Z,78.89
2022-09-09T03:38:47.248Z,80.95
2022-09-09T03:41:14.708Z,77.74
2022-09-09T03:43:42.864Z,80.27
2022-09-09T03:46:10.541Z,76.38
2022-09-09T03:48:39.318Z,76.94
2022-09-09T03:51:06.723Z,74.48
2022-09-09T03:53:35.306Z,74.76
2022-09-09T03:56:03.230Z,75.44
2022-09-09T03:58:30.748Z,77.88
2022-09-09T04:01:00.389Z,76.64
2022-09-09T04:03:28.800Z,76.58
2022-09-09T04:05:57.732Z,76.48
2022-09-09T04:08:28.750Z,76.07
2022-09-09T04:10:58.927Z,75.34
2022-09-09T04:13:27.495Z,78.35
2022-09-09T04:15:57.698Z,77.97
2022-09-09T04:18:26.948Z,75.52
2022-09-09T04:20:56.011Z,75.49
2022-09-09T04:23:25.163Z,76.51
2022-09-09T04:25:54.119Z,74.90
2022-09-09T04:28:24.077Z,74.67
2022-09-09T04:30:52.700Z,74.20
2022-09-09T04:33:20.539Z,74.65
2022-09-09T04:35:50.708Z,77.54
2022-09-09T04:38:19.117Z,77.69
2022-09-09T04:40:50.807Z,77.71
2022-09-09T04:43:19.855Z,78.94
2022-09-09T04:45:54.741Z,79.71
2022-09-09T04:48:22.581Z,77.93
2022-09-09T04:51:01.019Z,84.33
2022-09-09T04:53:28.744Z,80.47
2022-09-09T04:56:05.591Z,78.11
2022-09-09T04:58:33.637Z,79.94
2022-09-09T05:01:08.707Z,80.61
2022-09-09T05:03:36.917Z,79.97
2022-09-09T05:06:10.894Z,79.65
2022-09-09T05:08:39.506Z,78.23
2022-09-09T05:11:25.170Z,77.76
2022-09-09T05:13:53.522Z,78.15
2022-09-09T05:16:22.281Z,76.20
2022-09-09T05:18:52.904Z,79.65
2022-09-09T05:21:22.748Z,77.75
2022-09-09T05:23:51.385Z,75.48
2022-09-09T05:26:21.359Z,77.05
2022-09-09T05:28:49.607Z,77.20
2022-09-09T05:31:18.329Z,78.00
2022-09-09T05:33:47.044Z,74.23
2022-09-09T05:36:20.678Z,75.08
2022-09-09T05:38:48.769Z,78.08
2022-09-09T05:41:18.193Z,78.42
2022-09-09T05:43:48.055Z,76.72
2022-09-09T05:46:28.947Z,73.63
2022-09-09T05:48:56.396Z,73.18
2022-09-09T05:51:29.091Z,73.75
2022-09-09T05:53:59.420Z,76.58
2022-09-09T05:56:29.990Z,76.06
2022-09-09T05:58:57.901Z,74.67
2022-09-09T06:01:27.887Z,75.17
2022-09-09T06:03:55.619Z,76.31
2022-09-09T06:06:26.891Z,71.72
2022-09-09T06:08:58.302Z,71.37
2022-09-09T06:11:28.060Z,73.79
2022-09-09T06:13:55.691Z,75.12
2022-09-09T06:16:24.998Z,75.74
2022-09-09T06:18:54.032Z,73.50
2022-09-09T06:21:26.972Z,71.94
2022-09-09T06:23:58.952Z,76.32
2022-09-09T06:26:31.539Z,73.25
2022-09-09T06:29:00.209Z,68.76
2022-09-09T06:31:31.497Z,68.78
2022-09-09T06:34:00.276Z,67.98
2022-09-09T06:36:30.113Z,67.67
2022-09-09T06:38:57.846Z,67.58
2022-09-09T06:41:29.960Z,70.11
2022-09-09T06:43:57.900Z,69.22
2022-09-09T06:46:31.321Z,69.65
2022-09-09T06:49:00.780Z,71.50
2022-09-09T06:51:30.151Z,71.94
2022-09-09T06:53:59.701Z,72.44
2022-09-09T06:56:29.122Z,70.25
2022-09-09T06:58:59.425Z,68.64
2022-09-09T07:01:32.864Z,69.30
2022-09-09T07:04:01.464Z,64.89
2022-09-09T07:06:33.674Z,67.15
2022-09-09T07:09:07.016Z,69.43
2022-09-09T07:11:38.983Z,67.18
2022-09-09T07:14:06.698Z,68.14
2022-09-09T07:16:40.269Z,70.85
2022-09-09T07:19:07.615Z,70.99
2022-09-09T07:21:35.499Z,70.19
2022-09-09T07:24:03.340Z,68.19
2022-09-09T07:26:31.901Z,65.66
2022-09-09T07:29:00.361Z,63.09
2022-09-09T07:31:33.341Z,66.22
2022-09-09T07:34:02.000Z,64.55
2022-09-09T07:36:33.393Z,63.33
2022-09-09T07:39:07.195Z,65.54
2022-09-09T07:41:42.443Z,65.61
2022-09-09T07:44:30.546Z,69.42
2022-09-09T07:46:59.003Z,64.79
2022-09-09T07:49:32.157Z,64.18
2022-09-09T07:52:00.355Z,63.17
2022-09-09T07:54:28.781Z,62.30
2022-09-09T07:56:56.312Z,62.39
2022-09-09T07:59:25.068Z,61.42
2022-09-09T08:01:56.730Z,64.48
2022-09-09T08:04:26.175Z,65.18
2022-09-09T08:06:56.626Z,64.17
2022-09-09T08:09:27.932Z,62.07
2022-09-09T08:11:57.437Z,64.12
2022-09-09T08:14:25.751Z,60.62
2022-09-09T08:16:55.268Z,64.71
2022-09-09T08:19:23.665Z,63.26
2022-09-09T08:21:51.329Z,62.84
2022-09-09T08:24:20.565Z,57.74
2022-09-09T08:26:50.226Z,61.71
2022-09-09T08:29:19.123Z,61.88
2022-09-09T08:31:53.789Z,59.91
2022-09-09T08:34:22.445Z,60.64
2022-09-09T08:36:51.086Z,58.51
2022-09-09T08:39:21.562Z,56.91
2022-09-09T08:42:30.599Z,59.72
2022-09-09T08:45:13.140Z,57.45
2022-09-09T08:47:53.607Z,59.11
2022-09-09T08:50:36.695Z,56.83
2022-09-09T08:53:17.446Z,57.50
2022-09-09T08:55:56.421Z,56.46
2022-09-09T08:58:33.381Z,54.93
2022-09-09T09:01:10.624Z,53.95
2022-09-09T09:04:00.317Z,54.93
2022-09-09T09:06:31.309Z,54.06
2022-09-09T09:09:03.520Z,52.35
2022-09-09T09:11:49.463Z,54.13
2022-09-09T09:14:24.467Z,53.40
2022-09-09T09:16:57.132Z,51.50
2022-09-09T09:19:27.202Z,51.37
2022-09-09T09:22:11.684Z,51.25
2022-09-09T09:24:53.970Z,53.01
2022-09-09T09:27:36.043Z,50.39
2022-09-09T09:30:29.585Z,52.43
2022-09-09T09:33:04.290Z,52.77
2022-09-09T09:35:33.541Z,52.47
2022-09-09T09:40:58.904Z,51.56
2022-09-09T09:43:29.531Z,51.09
2022-09-09T09:46:16.790Z,47.43
2022-09-09T09:48:46.625Z,47.27
2022-09-09T09:51:17.072Z,47.50
2022-09-09T09:53:44.850Z,48.86
2022-09-09T09:56:15.994Z,45.04
2022-09-09T09:58:47.186Z,46.38
2022-09-09T10:01:30.777Z,43.25
2022-09-09T10:04:00.920Z,43.31
2022-09-09T10:06:36.264Z,46.09
2022-09-09T10:09:25.366Z,42.53
2022-09-09T10:12:21.116Z,44.07
2022-09-09T10:14:48.733Z,41.72
2022-09-09T10:17:32.864Z,44.27
2022-09-09T10:20:45.673Z,39.85
2022-09-09T10:23:38.138Z,40.79
2022-09-09T10:26:22.786Z,40.81
2022-09-09T10:28:56.515Z,43.28
2022-09-09T10:31:32.287Z,38.06
2022-09-09T10:34:18.186Z,37.52
2022-09-09T10:36:50.138Z,35.71
2022-09-09T10:39:40.643Z,37.99
2022-09-09T10:42:13.702Z,38.07
2022-09-09T10:45:06.472Z,40.16
2022-09-09T10:47:58.517Z,40.64
2022-09-09T10:51:00.712Z,37.99
2022-09-09T10:53:39.727Z,39.56
2022-09-09T10:56:16.124Z,34.05
2022-09-09T10:58:53.891Z,35.81
2022-09-09T11:01:51.286Z,37.23
2022-09-09T11:04:36.310Z,38.17
2022-09-09T11:07:11.608Z,37.35
2022-09-09T11:09:49.303Z,34.33
2022-09-09T11:12:21.219Z,36.90
2022-09-09T11:14:55.671Z,35.16
2022-09-09T11:17:24.085Z,35.82
2022-09-09T11:19:51.914Z,35.83
2022-09-09T11:22:30.541Z,37.28
2022-09-09T11:25:21.356Z,36.77
2022-09-09T11:27:57.576Z,36.36
2022-09-09T11:30:57.511Z,37.47
2022-09-09T11:34:09.428Z,38.14
2022-09-09T11:36:55.331Z,38.30
2022-09-09T11:39:31.736Z,39.40
2022-09-09T11:42:14.373Z,36.52
2022-09-09T11:44:42.470Z,39.26
2022-09-09T11:47:30.171Z,37.90
2022-09-09T11:50:15.774Z,37.62
2022-09-09T11:52:49.356Z,37.54
2022-09-09T11:55:35.729Z,37.83
2022-09-09T11:58:03.982Z,39.19
2022-09-09T12:00:38.428Z,39.53
2022-09-09T12:03:06.834Z,42.13
2022-09-09T12:05:52.438Z,40.46
2022-09-09T12:08:27.886Z,40.28
2022-09-09T12:10:57.170Z,39.22
2022-09-09T12:13:26.466Z,38.79
2022-09-09T12:15:55.679Z,41.41
2022-09-09T12:18:35.086Z,38.61
2022-09-09T12:21:13.150Z,35.83
2022-09-09T12:23:53.061Z,37.55
2022-09-09T12:26:35.300Z,36.15
2022-09-09T12:29:05.565Z,36.03
2022-09-09T12:31:36.031Z,37.41
2022-09-09T12:34:20.587Z,35.05
2022-09-09T12:36:54.770Z,36.29
2022-09-09T12:39:54.663Z,36.38
2022-09-09T12:42:23.207Z,36.08
2022-09-09T12:45:04.935Z,36.10
2022-09-09T12:47:38.924Z,36.70
2022-09-09T12:50:11.834Z,35.12
2022-09-09T12:52:40.053Z,34.24
2022-09-09T12:55:09.734Z,35.84
2022-09-09T12:57:39.257Z,35.59
2022-09-09T13:00:18.789Z,37.07
2022-09-09T13:02:49.974Z,34.58
2022-09-09T13:05:26.068Z,34.50
2022-09-09T13:08:03.352Z,36.01
2022-09-09T13:10:43.127Z,36.06
2022-09-09T13:13:19.163Z,34.87
2022-09-09T13:15:55.234Z,37.73
2022-09-09T13:18:28.585Z,37.19
2022-09-09T13:20:58.887Z,36.87
2022-09-09T13:23:36.138Z,37.29
2022-09-09T13:26:07.101Z,36.90
2022-09-09T13:28:36.072Z,36.08
2022-09-09T13:31:07.929Z,37.40
2022-09-09T13:33:39.259Z,35.69
2022-09-09T13:36:11.756Z,36.58
2022-09-09T13:39:00.665Z,35.16
2022-09-09T13:41:34.975Z,35.49
2022-09-09T13:44:03.886Z,36.99
2022-09-09T13:46:41.121Z,36.21
2022-09-09T13:49:11.176Z,35.95
2022-09-09T13:51:39.731Z,37.47
2022-09-09T13:54:10.636Z,34.32
2022-09-09T13:56:39.716Z,35.31
2022-09-09T13:59:11.122Z,36.34
2022-09-09T14:01:38.808Z,37.21
2022-09-09T14:04:07.562Z,35.67
2022-09-09T14:06:38.210Z,36.59
2022-09-09T14:09:12.251Z,35.20
2022-09-09T14:11:39.594Z,37.71
2022-09-09T14:14:07.207Z,36.64
2022-09-09T14:16:34.610Z,35.36
2022-09-09T14:19:02.189Z,35.15
2022-09-09T14:21:29.776Z,35.74
2022-09-09T14:23:58.994Z,36.13
2022-09-09T14:26:27.230Z,36.83
2022-09-09T14:28:55.977Z,36.39
2022-09-09T14:31:24.576Z,37.58
2022-09-09T14:33:52.242Z,37.66
2022-09-09T14:36:19.916Z,35.90
2022-09-09T14:38:47.591Z,38.92
2022-09-09T14:41:20.732Z,35.95
2022-09-09T14:43:48.346Z,36.83
2022-09-09T14:46:17.321Z,36.50
2022-09-09T14:48:46.170Z,36.55
2022-09-09T14:51:17.346Z,37.34
2022-09-09T14:53:45.339Z,36.95
2022-09-09T14:56:17.837Z,37.16
2022-09-09T14:58:45.829Z,36.41
2022-09-09T15:01:15.444Z,36.14
2022-09-09T15:03:44.474Z,36.83
2022-09-09T15:06:13.542Z,35.57
2022-09-09T15:08:43.183Z,36.65
2022-09-09T15:11:11.524Z,36.11
2022-09-09T15:13:40.940Z,38.60
2022-09-09T15:16:10.311Z,37.44
2022-09-09T15:18:37.621Z,36.59
2022-09-09T15:21:05.930Z,36.23
2022-09-09T15:23:34.155Z,37.32
2022-09-09T15:26:01.457Z,36.20
2022-09-09T15:28:29.332Z,37.94
2022-09-09T15:30:57.824Z,34.99
2022-09-09T15:33:25.222Z,33.94
2022-09-09T15:35:53.075Z,35.99
2022-09-09T15:38:20.567Z,34.25
2022-09-09T15:40:55.402Z,35.50
2022-09-09T15:43:23.204Z,36.23
2022-09-09T15:45:57.871Z,36.86
2022-09-09T15:48:35.648Z,35.75
2022-09-09T15:51:10.923Z,35.93
2022-09-09T15:53:46.959Z,35.49
2022-09-09T15:56:14.503Z,34.97
2022-09-09T15:58:43.228Z,35.45
2022-09-09T16:01:12.398Z,35.51
2022-09-09T16:03:45.616Z,36.66
2022-09-09T16:06:14.614Z,36.28
2022-09-09T16:08:44.569Z,37.11
2022-09-09T16:11:18.416Z,37.11
2022-09-09T16:13:50.924Z,37.64
2022-09-09T16:16:22.985Z,38.29
2022-09-09T16:18:53.656Z,39.08
2022-09-09T16:21:36.122Z,39.48
2022-09-09T16:24:04.939Z,40.60
2022-09-09T16:26:34.076Z,40.00
2022-09-09T16:29:02.339Z,39.76
2022-09-09T16:31:31.033Z,39.99
2022-09-09T16:33:58.989Z,40.56
2022-09-09T16:36:35.041Z,40.13
2022-09-09T16:39:06.355Z,41.06
2022-09-09T16:41:34.192Z,40.31
2022-09-09T16:44:04.465Z,40.36
2022-09-09T16:46:34.987Z,40.61
2022-09-09T16:49:04.199Z,40.04
2022-09-09T16:51:33.967Z,40.13
2022-09-09T16:54:02.914Z,41.49
2022-09-09T16:56:34.081Z,42.42
2022-09-09T16:59:03.459Z,41.56
2022-09-09T17:01:33.862Z,42.68
2022-09-09T17:04:03.428Z,41.91
2022-09-09T17:06:31.801Z,42.46
2022-09-09T17:09:02.290Z,42.48
2022-09-09T17:11:30.815Z,42.73
2022-09-09T17:13:59.218Z,43.19
2022-09-09T17:16:29.869Z,43.04
2022-09-09T17:18:59.531Z,43.17
2022-09-09T17:21:28.422Z,44.01
2022-09-09T17:23:56.952Z,46.06
2022-09-09T17:26:27.834Z,47.78
2022-09-09T17:28:59.439Z,47.52
2022-09-09T17:31:28.542Z,47.15
2022-09-09T17:33:56.309Z,48.47
2022-09-09T17:36:26.276Z,48.19
2022-09-09T17:38:54.285Z,48.57
2022-09-09T17:41:26.865Z,47.08
2022-09-09T17:43:55.520Z,45.78
2022-09-09T17:46:25.940Z,47.25
2022-09-09T17:48:57.533Z,47.88
2022-09-09T17:51:28.770Z,46.88
2022-09-09T17:53:59.860Z,47.22
2022-09-09T17:56:31.492Z,48.30
2022-09-09T17:59:00.286Z,50.27
2022-09-09T18:01:31.214Z,50.79
2022-09-09T18:04:04.225Z,49.83
2022-09-09T18:06:37.072Z,48.91
2022-09-09T18:09:08.240Z,48.04
2022-09-09T18:11:39.842Z,47.90
2022-09-09T18:14:07.454Z,48.22
2022-09-09T18:16:36.509Z,50.03
2022-09-09T18:19:05.738Z,49.35
2022-09-09T18:21:34.285Z,50.03
2022-09-09T18:24:03.877Z,50.47
2022-09-09T18:26:33.711Z,49.24
2022-09-09T18:29:04.826Z,50.40
2022-09-09T18:31:33.153Z,51.11
2022-09-09T18:34:03.762Z,49.56
2022-09-09T18:36:34.845Z,48.94
2022-09-09T18:39:04.322Z,49.57
2022-09-09T18:41:37.536Z,50.96
2022-09-09T18:44:16.474Z,50.76
2022-09-09T18:46:45.184Z,52.12
2022-09-09T18:49:13.763Z,52.23
2022-09-09T18:51:43.345Z,51.06
2022-09-09T18:54:16.715Z,51.60
2022-09-09T18:56:44.961Z,53.00
2022-09-09T18:59:14.940Z,52.94
2022-09-09T19:01:42.733Z,51.83
2022-09-09T19:04:10.695Z,51.13
2022-09-09T19:06:41.434Z,52.49
2022-09-09T19:09:17.184Z,54.68
2022-09-09T19:11:45.745Z,54.68
2022-09-09T19:14:15.391Z,52.88
2022-09-09T19:16:44.685Z,52.21
2022-09-09T19:19:21.279Z,53.46
2022-09-09T19:21:49.127Z,52.35
2022-09-09T19:24:22.302Z,53.92
2022-09-09T19:26:52.305Z,53.66
2022-09-09T19:29:22.440Z,55.26
2022-09-09T19:32:29.328Z,55.48
2022-09-09T19:34:38.753Z,55.64
2022-09-09T19:37:06.114Z,55.13
2022-09-09T19:39:34.715Z,53.69
2022-09-09T19:42:02.475Z,52.62
2022-09-09T19:44:29.970Z,53.76
2022-09-09T19:46:59.607Z,54.82
2022-09-09T19:49:27.221Z,55.30
2022-09-09T19:51:55.881Z,54.72
2022-09-09T19:54:23.370Z,55.29
2022-09-09T19:56:50.975Z,54.59
2022-09-09T19:59:18.305Z,55.47
2022-09-09T20:01:45.881Z,55.69
2022-09-09T20:04:14.752Z,56.33
2022-09-09T20:06:46.322Z,56.77
2022-09-09T20:09:21.230Z,57.86
2022-09-09T20:11:49.684Z,57.48
2022-09-09T20:16:49.610Z,59.06
2022-09-09T20:19:17.277Z,58.04
2022-09-09T20:21:49.635Z,56.42
2022-09-09T20:24:19.450Z,58.35
2022-09-09T20:26:48.389Z,56.54
2022-09-09T20:29:18.102Z,57.50
2022-09-09T20:31:45.954Z,57.93
2022-09-09T20:34:15.354Z,59.28
2022-09-09T20:36:43.325Z,60.16
2022-09-09T20:39:14.896Z,59.80
2022-09-09T20:41:44.423Z,60.49
2022-09-09T20:44:17.299Z,59.92
2022-09-09T20:46:49.281Z,60.39
2022-09-09T20:49:18.755Z,60.93
2022-09-09T20:51:47.885Z,60.16
2022-09-09T20:54:18.106Z,60.18
2022-09-09T20:56:46.396Z,60.71
2022-09-09T20:59:34.913Z,61.35
2022-09-09T21:02:03.486Z,61.17
2022-09-09T21:04:31.333Z,62.36
2022-09-09T21:06:58.631Z,63.21
2022-09-09T21:09:26.212Z,62.40
2022-09-09T21:11:53.826Z,61.35
2022-09-09T21:14:21.700Z,62.35
2022-09-09T21:16:49.289Z,62.94
2022-09-09T21:19:16.618Z,61.33
2022-09-09T21:21:45.387Z,62.70
2022-09-09T21:24:12.952Z,63.87
2022-09-09T21:26:40.244Z,64.28
2022-09-09T21:29:07.919Z,64.38
2022-09-09T21:31:35.520Z,63.58
2022-09-09T21:34:03.409Z,65.44
2022-09-09T21:36:30.709Z,66.24
2022-09-09T21:38:59.303Z,68.44
2022-09-09T21:41:27.169Z,66.84
2022-09-09T21:43:54.869Z,64.47
2022-09-09T21:46:23.672Z,65.19
2022-09-09T21:48:51.195Z,64.16
2022-09-09T21:51:18.957Z,64.71
2022-09-09T21:53:46.556Z,65.68
2022-09-09T21:56:18.427Z,66.54
2022-09-09T21:58:46.819Z,66.66
2022-09-09T22:01:17.023Z,65.73
2022-09-09T22:03:45.213Z,67.40
2022-09-09T22:06:14.914Z,67.12
2022-09-09T22:08:42.802Z,66.63
2022-09-09T22:11:20.595Z,67.99
2022-09-09T22:13:48.920Z,69.44
2022-09-09T22:16:19.069Z,67.87
2022-09-09T22:18:56.843Z,67.26
2022-09-09T22:21:26.290Z,68.77
2022-09-09T22:23:55.367Z,69.58
2022-09-09T22:26:23.952Z,69.35
2022-09-09T22:28:53.799Z,67.80
2022-09-09T22:31:22.774Z,67.98
2022-09-09T22:33:51.896Z,69.86
2022-09-09T22:36:20.380Z,69.23
2022-09-09T22:38:48.992Z,70.58
2022-09-09T22:41:17.136Z,71.15
2022-09-09T22:43:45.515Z,70.11
2022-09-09T22:46:13.597Z,71.23
2022-09-09T22:48:40.970Z,71.04
2022-09-09T22:51:13.490Z,69.55
2022-09-09T22:53:41.961Z,70.02
2022-09-09T22:56:17.255Z,69.04
2022-09-09T22:58:46.095Z,69.54
2022-09-09T23:01:16.305Z,70.77
2022-09-09T23:03:46.159Z,69.25
2022-09-09T23:06:20.114Z,70.50
2022-09-09T23:08:52.358Z,72.25
2022-09-09T23:11:20.548Z,72.24
2022-09-09T23:13:50.293Z,71.76
2022-09-09T23:16:20.273Z,71.48
2022-09-09T23:18:48.571Z,71.01
2022-09-09T23:21:16.050Z,72.03
2022-09-09T23:23:43.591Z,71.78
2022-09-09T23:26:14.066Z,73.74
2022-09-09T23:28:42.516Z,73.64
2022-09-09T23:31:13.072Z,71.37
2022-09-09T23:33:41.846Z,71.44
2022-09-09T23:36:13.392Z,72.01
2022-09-09T23:38:41.530Z,72.20
2022-09-09T23:41:11.305Z,73.08
2022-09-09T23:43:43.587Z,73.73
2022-09-09T23:46:13.956Z,73.21
2022-09-09T23:48:41.796Z,72.76
2022-09-09T23:51:17.652Z,73.12
2022-09-09T23:53:51.031Z,71.78
2022-09-09T23:56:22.448Z,72.35
2022-09-09T23:58:50.613Z,71.36
